sensor_id;sensor_type;location;lat;lon;timestamp;temperature;humidity
10459;DHT22;5277;48.722;8.736;2023-03-31T00:00:44;8.70;99.90
10459;DHT22;5277;48.722;8.736;2023-03-31T00:03:14;8.70;99.90
10459;DHT22;5277;48.722;8.736;2023-03-31T00:05:46;8.70;99.90
10459;DHT22;5277;48.722;8.736;2023-03-31T00:08:12;8.60;99.90
10459;DHT22;5277;48.722;8.736;2023-03-31T00:10:43;8.60;99.90
10459;DHT22;5277;48.722;8.736;2023-03-31T00:13:10;8.60;99.90
10459;DHT22;5277;48.722;8.736;2023-03-31T00:15:36;8.50;99.90
10459;DHT22;5277;48.722;8.736;2023-03-31T00:18:02;8.50;99.90
10459;DHT22;5277;48.722;8.736;2023-03-31T00:20:27;8.50;99.90
10459;DHT22;5277;48.722;8.736;2023-03-31T00:22:53;8.50;99.90
10459;DHT22;5277;48.722;8.736;2023-03-31T00:25:19;8.50;99.90
10459;DHT22;5277;48.722;8.736;2023-03-31T00:27:45;8.50;99.90
10459;DHT22;5277;48.722;8.736;2023-03-31T00:30:12;8.50;99.90
10459;DHT22;5277;48.722;8.736;2023-03-31T00:32:38;8.40;99.90
10459;DHT22;5277;48.722;8.736;2023-03-31T00:35:04;8.40;99.90
10459;DHT22;5277;48.722;8.736;2023-03-31T00:37:29;8.50;99.90
10459;DHT22;5277;48.722;8.736;2023-03-31T00:39:55;8.50;99.90
10459;DHT22;5277;48.722;8.736;2023-03-31T00:42:22;8.60;99.90
10459;DHT22;5277;48.722;8.736;2023-03-31T00:47:42;8.50;99.90
10459;DHT22;5277;48.722;8.736;2023-03-31T00:50:14;8.50;99.90
10459;DHT22;5277;48.722;8.736;2023-03-31T00:52:44;8.50;99.90
10459;DHT22;5277;48.722;8.736;2023-03-31T00:55:14;8.50;99.90
10459;DHT22;5277;48.722;8.736;2023-03-31T00:57:42;8.50;99.90
10459;DHT22;5277;48.722;8.736;2023-03-31T01:00:12;8.50;99.90
10459;DHT22;5277;48.722;8.736;2023-03-31T01:02:40;8.60;99.90
10459;DHT22;5277;48.722;8.736;2023-03-31T01:06:00;8.60;99.90
10459;DHT22;5277;48.722;8.736;2023-03-31T01:08:06;8.70;99.90
10459;DHT22;5277;48.722;8.736;2023-03-31T01:10:34;8.70;99.90
10459;DHT22;5277;48.722;8.736;2023-03-31T01:13:10;8.70;99.90
10459;DHT22;5277;48.722;8.736;2023-03-31T01:15:38;8.80;99.90
10459;DHT22;5277;48.722;8.736;2023-03-31T01:18:05;8.80;99.90
10459;DHT22;5277;48.722;8.736;2023-03-31T01:29:50;8.90;99.90
10459;DHT22;5277;48.722;8.736;2023-03-31T01:43:07;8.90;99.90
10459;DHT22;5277;48.722;8.736;2023-03-31T01:45:49;8.90;99.90
10459;DHT22;5277;48.722;8.736;2023-03-31T01:48:25;8.90;99.90
10459;DHT22;5277;48.722;8.736;2023-03-31T01:51:01;8.90;99.90
10459;DHT22;5277;48.722;8.736;2023-03-31T01:53:39;8.90;99.90
10459;DHT22;5277;48.722;8.736;2023-03-31T01:56:21;9.00;99.90
10459;DHT22;5277;48.722;8.736;2023-03-31T01:58:56;9.00;99.90
10459;DHT22;5277;48.722;8.736;2023-03-31T02:01:31;9.10;99.90
10459;DHT22;5277;48.722;8.736;2023-03-31T02:04:25;9.10;99.90
10459;DHT22;5277;48.722;8.736;2023-03-31T02:07:00;9.10;99.90
10459;DHT22;5277;48.722;8.736;2023-03-31T02:09:33;9.00;99.90
10459;DHT22;5277;48.722;8.736;2023-03-31T02:12:03;9.00;99.90
10459;DHT22;5277;48.722;8.736;2023-03-31T02:14:31;8.90;99.90
10459;DHT22;5277;48.722;8.736;2023-03-31T02:16:58;9.00;99.90
10459;DHT22;5277;48.722;8.736;2023-03-31T02:19:32;9.00;99.90
10459;DHT22;5277;48.722;8.736;2023-03-31T02:21:58;9.00;99.90
10459;DHT22;5277;48.722;8.736;2023-03-31T02:24:26;9.10;99.90
10459;DHT22;5277;48.722;8.736;2023-03-31T02:29:31;9.10;99.90
10459;DHT22;5277;48.722;8.736;2023-03-31T02:34:39;9.10;99.90
10459;DHT22;5277;48.722;8.736;2023-03-31T02:37:05;9.20;99.90
10459;DHT22;5277;48.722;8.736;2023-03-31T02:39:35;9.20;99.90
10459;DHT22;5277;48.722;8.736;2023-03-31T02:42:03;9.20;99.90
10459;DHT22;5277;48.722;8.736;2023-03-31T02:44:38;9.20;99.90
10459;DHT22;5277;48.722;8.736;2023-03-31T02:47:07;9.20;99.90
10459;DHT22;5277;48.722;8.736;2023-03-31T02:49:35;9.10;99.90
10459;DHT22;5277;48.722;8.736;2023-03-31T02:58:01;9.00;99.90
10459;DHT22;5277;48.722;8.736;2023-03-31T03:00:38;9.00;99.90
10459;DHT22;5277;48.722;8.736;2023-03-31T03:06:31;8.80;99.90
10459;DHT22;5277;48.722;8.736;2023-03-31T03:11:47;8.60;99.90
10459;DHT22;5277;48.722;8.736;2023-03-31T03:19:31;8.30;99.90
10459;DHT22;5277;48.722;8.736;2023-03-31T03:21:57;8.30;99.90
10459;DHT22;5277;48.722;8.736;2023-03-31T03:24:23;8.20;99.90
10459;DHT22;5277;48.722;8.736;2023-03-31T03:26:54;8.20;99.90
10459;DHT22;5277;48.722;8.736;2023-03-31T03:29:19;8.20;99.90
10459;DHT22;5277;48.722;8.736;2023-03-31T03:31:45;8.20;99.90
10459;DHT22;5277;48.722;8.736;2023-03-31T03:34:11;8.30;99.90
10459;DHT22;5277;48.722;8.736;2023-03-31T03:36:37;8.30;99.90
10459;DHT22;5277;48.722;8.736;2023-03-31T03:39:05;8.40;99.90
10459;DHT22;5277;48.722;8.736;2023-03-31T03:41:31;8.40;99.90
10459;DHT22;5277;48.722;8.736;2023-03-31T03:43:58;8.40;99.90
10459;DHT22;5277;48.722;8.736;2023-03-31T03:46:24;8.40;99.90
10459;DHT22;5277;48.722;8.736;2023-03-31T03:48:50;8.30;99.90
10459;DHT22;5277;48.722;8.736;2023-03-31T03:51:15;8.20;99.90
10459;DHT22;5277;48.722;8.736;2023-03-31T03:53:41;8.10;99.90
10459;DHT22;5277;48.722;8.736;2023-03-31T03:56:07;8.00;99.90
10459;DHT22;5277;48.722;8.736;2023-03-31T03:58:33;8.00;99.90
10459;DHT22;5277;48.722;8.736;2023-03-31T04:00:58;7.90;99.90
10459;DHT22;5277;48.722;8.736;2023-03-31T04:03:24;7.80;99.90
10459;DHT22;5277;48.722;8.736;2023-03-31T04:05:50;7.70;99.90
10459;DHT22;5277;48.722;8.736;2023-03-31T04:08:17;7.60;99.90
10459;DHT22;5277;48.722;8.736;2023-03-31T04:10:44;7.70;99.90
10459;DHT22;5277;48.722;8.736;2023-03-31T04:13:10;7.70;99.90
10459;DHT22;5277;48.722;8.736;2023-03-31T04:15:35;7.80;99.90
10459;DHT22;5277;48.722;8.736;2023-03-31T04:18:01;7.80;99.90
10459;DHT22;5277;48.722;8.736;2023-03-31T04:20:27;7.90;99.90
10459;DHT22;5277;48.722;8.736;2023-03-31T04:22:54;7.90;99.90
10459;DHT22;5277;48.722;8.736;2023-03-31T04:25:20;8.00;99.90
10459;DHT22;5277;48.722;8.736;2023-03-31T04:27:50;8.00;99.90
10459;DHT22;5277;48.722;8.736;2023-03-31T04:30:24;8.10;99.90
10459;DHT22;5277;48.722;8.736;2023-03-31T04:32:57;8.10;99.90
10459;DHT22;5277;48.722;8.736;2023-03-31T04:35:24;8.20;99.90
10459;DHT22;5277;48.722;8.736;2023-03-31T04:37:51;8.20;99.90
10459;DHT22;5277;48.722;8.736;2023-03-31T04:40:23;8.20;99.90
10459;DHT22;5277;48.722;8.736;2023-03-31T04:42:49;8.20;99.90
10459;DHT22;5277;48.722;8.736;2023-03-31T04:45:15;8.20;99.90
10459;DHT22;5277;48.722;8.736;2023-03-31T04:47:41;8.10;99.90
10459;DHT22;5277;48.722;8.736;2023-03-31T04:50:08;8.10;99.90
10459;DHT22;5277;48.722;8.736;2023-03-31T04:52:34;8.20;99.90
10459;DHT22;5277;48.722;8.736;2023-03-31T04:55:00;8.20;99.90
10459;DHT22;5277;48.722;8.736;2023-03-31T04:57:26;8.30;99.90
10459;DHT22;5277;48.722;8.736;2023-03-31T04:59:51;8.40;99.90
10459;DHT22;5277;48.722;8.736;2023-03-31T05:02:17;8.40;99.90
10459;DHT22;5277;48.722;8.736;2023-03-31T05:04:48;8.50;99.90
10459;DHT22;5277;48.722;8.736;2023-03-31T05:07:14;8.60;99.90
10459;DHT22;5277;48.722;8.736;2023-03-31T05:09:39;8.70;99.90
10459;DHT22;5277;48.722;8.736;2023-03-31T05:12:05;8.70;99.90
10459;DHT22;5277;48.722;8.736;2023-03-31T05:14:31;8.80;99.90
10459;DHT22;5277;48.722;8.736;2023-03-31T05:16:56;8.80;99.90
10459;DHT22;5277;48.722;8.736;2023-03-31T05:19:23;8.90;99.90
10459;DHT22;5277;48.722;8.736;2023-03-31T05:21:49;8.90;99.90
10459;DHT22;5277;48.722;8.736;2023-03-31T05:24:14;8.80;99.90
10459;DHT22;5277;48.722;8.736;2023-03-31T05:26:40;8.80;99.90
10459;DHT22;5277;48.722;8.736;2023-03-31T05:29:06;8.80;99.90
10459;DHT22;5277;48.722;8.736;2023-03-31T05:31:31;8.80;99.90
10459;DHT22;5277;48.722;8.736;2023-03-31T05:33:57;8.80;99.90
10459;DHT22;5277;48.722;8.736;2023-03-31T05:36:22;8.90;99.90
10459;DHT22;5277;48.722;8.736;2023-03-31T05:38:48;8.90;99.90
10459;DHT22;5277;48.722;8.736;2023-03-31T05:41:14;8.90;99.90
10459;DHT22;5277;48.722;8.736;2023-03-31T05:43:41;8.90;99.90
10459;DHT22;5277;48.722;8.736;2023-03-31T05:46:07;8.70;99.90
10459;DHT22;5277;48.722;8.736;2023-03-31T05:48:33;8.70;99.90
10459;DHT22;5277;48.722;8.736;2023-03-31T05:51:00;8.80;99.90
10459;DHT22;5277;48.722;8.736;2023-03-31T05:53:26;8.80;99.90
10459;DHT22;5277;48.722;8.736;2023-03-31T05:55:59;8.80;99.90
10459;DHT22;5277;48.722;8.736;2023-03-31T05:58:27;8.80;99.90
10459;DHT22;5277;48.722;8.736;2023-03-31T06:01:07;8.80;99.90
10459;DHT22;5277;48.722;8.736;2023-03-31T06:03:35;8.80;99.90
10459;DHT22;5277;48.722;8.736;2023-03-31T06:06:01;8.80;99.90
10459;DHT22;5277;48.722;8.736;2023-03-31T06:08:28;8.90;99.90
10459;DHT22;5277;48.722;8.736;2023-03-31T06:10:53;8.90;99.90
10459;DHT22;5277;48.722;8.736;2023-03-31T06:13:19;9.00;99.90
10459;DHT22;5277;48.722;8.736;2023-03-31T06:16:05;9.10;99.90
10459;DHT22;5277;48.722;8.736;2023-03-31T06:18:33;9.10;99.90
10459;DHT22;5277;48.722;8.736;2023-03-31T06:20:59;9.20;99.90
10459;DHT22;5277;48.722;8.736;2023-03-31T06:23:25;9.20;99.90
10459;DHT22;5277;48.722;8.736;2023-03-31T06:25:53;9.30;99.90
10459;DHT22;5277;48.722;8.736;2023-03-31T06:28:19;9.40;99.90
10459;DHT22;5277;48.722;8.736;2023-03-31T06:30:45;9.40;99.90
10459;DHT22;5277;48.722;8.736;2023-03-31T06:33:11;9.50;99.90
10459;DHT22;5277;48.722;8.736;2023-03-31T06:35:38;9.50;99.90
10459;DHT22;5277;48.722;8.736;2023-03-31T06:38:04;9.50;99.90
10459;DHT22;5277;48.722;8.736;2023-03-31T06:40:29;9.50;99.90
10459;DHT22;5277;48.722;8.736;2023-03-31T06:42:55;9.50;99.90
10459;DHT22;5277;48.722;8.736;2023-03-31T06:45:21;9.50;99.90
10459;DHT22;5277;48.722;8.736;2023-03-31T06:47:46;9.50;99.90
10459;DHT22;5277;48.722;8.736;2023-03-31T06:50:12;9.50;99.90
10459;DHT22;5277;48.722;8.736;2023-03-31T06:52:38;9.40;99.90
10459;DHT22;5277;48.722;8.736;2023-03-31T06:55:06;9.40;99.90
10459;DHT22;5277;48.722;8.736;2023-03-31T06:57:32;9.40;99.90
10459;DHT22;5277;48.722;8.736;2023-03-31T06:59:58;9.50;99.90
10459;DHT22;5277;48.722;8.736;2023-03-31T07:02:24;9.50;99.90
10459;DHT22;5277;48.722;8.736;2023-03-31T07:04:50;9.60;99.90
10459;DHT22;5277;48.722;8.736;2023-03-31T07:07:16;9.60;99.90
10459;DHT22;5277;48.722;8.736;2023-03-31T07:09:41;9.60;99.90
10459;DHT22;5277;48.722;8.736;2023-03-31T07:12:07;9.70;99.90
10459;DHT22;5277;48.722;8.736;2023-03-31T07:14:32;9.80;99.90
10459;DHT22;5277;48.722;8.736;2023-03-31T07:16:58;9.80;99.90
10459;DHT22;5277;48.722;8.736;2023-03-31T07:19:24;9.80;99.90
10459;DHT22;5277;48.722;8.736;2023-03-31T07:21:50;9.80;99.90
10459;DHT22;5277;48.722;8.736;2023-03-31T07:24:16;9.90;99.90
10459;DHT22;5277;48.722;8.736;2023-03-31T07:26:42;10.00;99.90
10459;DHT22;5277;48.722;8.736;2023-03-31T07:29:07;10.20;99.90
10459;DHT22;5277;48.722;8.736;2023-03-31T07:31:33;10.40;99.90
10459;DHT22;5277;48.722;8.736;2023-03-31T07:34:00;10.60;99.90
10459;DHT22;5277;48.722;8.736;2023-03-31T07:36:26;10.80;99.90
10459;DHT22;5277;48.722;8.736;2023-03-31T07:38:52;11.00;99.90
10459;DHT22;5277;48.722;8.736;2023-03-31T07:41:19;11.20;99.90
10459;DHT22;5277;48.722;8.736;2023-03-31T07:43:45;11.30;99.90
10459;DHT22;5277;48.722;8.736;2023-03-31T07:46:20;11.50;99.90
10459;DHT22;5277;48.722;8.736;2023-03-31T07:48:46;11.70;99.90
10459;DHT22;5277;48.722;8.736;2023-03-31T07:51:14;11.90;99.90
10459;DHT22;5277;48.722;8.736;2023-03-31T07:53:40;12.10;99.90
10459;DHT22;5277;48.722;8.736;2023-03-31T07:56:05;12.20;99.90
10459;DHT22;5277;48.722;8.736;2023-03-31T07:58:31;12.40;99.90
10459;DHT22;5277;48.722;8.736;2023-03-31T08:00:57;12.60;99.90
10459;DHT22;5277;48.722;8.736;2023-03-31T08:03:22;12.80;99.90
10459;DHT22;5277;48.722;8.736;2023-03-31T08:05:51;13.00;99.90
10459;DHT22;5277;48.722;8.736;2023-03-31T08:08:16;13.20;99.90
10459;DHT22;5277;48.722;8.736;2023-03-31T08:10:42;13.40;99.90
10459;DHT22;5277;48.722;8.736;2023-03-31T08:13:08;13.60;99.90
10459;DHT22;5277;48.722;8.736;2023-03-31T08:15:33;13.70;99.90
10459;DHT22;5277;48.722;8.736;2023-03-31T08:17:59;13.80;99.90
10459;DHT22;5277;48.722;8.736;2023-03-31T08:20:25;13.80;99.90
10459;DHT22;5277;48.722;8.736;2023-03-31T08:22:50;13.90;99.90
10459;DHT22;5277;48.722;8.736;2023-03-31T08:25:16;14.00;99.90
10459;DHT22;5277;48.722;8.736;2023-03-31T08:27:42;14.00;99.90
10459;DHT22;5277;48.722;8.736;2023-03-31T08:30:10;14.10;99.90
10459;DHT22;5277;48.722;8.736;2023-03-31T08:32:36;14.20;99.90
10459;DHT22;5277;48.722;8.736;2023-03-31T08:35:01;14.30;99.90
10459;DHT22;5277;48.722;8.736;2023-03-31T08:37:27;14.30;99.90
10459;DHT22;5277;48.722;8.736;2023-03-31T08:39:54;14.40;99.90
10459;DHT22;5277;48.722;8.736;2023-03-31T08:42:33;14.60;99.90
10459;DHT22;5277;48.722;8.736;2023-03-31T08:45:05;14.60;99.90
10459;DHT22;5277;48.722;8.736;2023-03-31T08:47:34;14.70;99.90
10459;DHT22;5277;48.722;8.736;2023-03-31T08:50:12;14.70;99.90
10459;DHT22;5277;48.722;8.736;2023-03-31T08:52:44;14.70;99.90
10459;DHT22;5277;48.722;8.736;2023-03-31T08:55:51;14.80;99.90
10459;DHT22;5277;48.722;8.736;2023-03-31T08:58:35;14.80;99.90
10459;DHT22;5277;48.722;8.736;2023-03-31T09:04:42;14.80;99.90
10459;DHT22;5277;48.722;8.736;2023-03-31T09:09:43;14.80;99.90
10459;DHT22;5277;48.722;8.736;2023-03-31T09:12:19;14.80;99.90
10459;DHT22;5277;48.722;8.736;2023-03-31T09:14:56;14.90;99.90
10459;DHT22;5277;48.722;8.736;2023-03-31T09:17:44;15.00;99.40
10459;DHT22;5277;48.722;8.736;2023-03-31T09:20:24;15.00;99.40
10459;DHT22;5277;48.722;8.736;2023-03-31T09:25:42;15.00;99.10
10459;DHT22;5277;48.722;8.736;2023-03-31T09:28:21;15.10;98.70
10459;DHT22;5277;48.722;8.736;2023-03-31T09:30:49;15.30;98.40
10459;DHT22;5277;48.722;8.736;2023-03-31T09:33:18;15.70;98.00
10459;DHT22;5277;48.722;8.736;2023-03-31T09:35:44;15.90;97.50
10459;DHT22;5277;48.722;8.736;2023-03-31T09:38:11;16.20;96.40
10459;DHT22;5277;48.722;8.736;2023-03-31T09:40:37;16.20;95.90
10459;DHT22;5277;48.722;8.736;2023-03-31T09:43:05;16.20;95.90
10459;DHT22;5277;48.722;8.736;2023-03-31T09:45:31;16.20;95.00
10459;DHT22;5277;48.722;8.736;2023-03-31T09:48:03;16.10;93.90
10459;DHT22;5277;48.722;8.736;2023-03-31T09:50:35;15.90;94.80
10459;DHT22;5277;48.722;8.736;2023-03-31T09:53:14;16.10;95.50
10459;DHT22;5277;48.722;8.736;2023-03-31T09:55:44;16.50;94.50
10459;DHT22;5277;48.722;8.736;2023-03-31T09:58:15;16.80;94.20
10459;DHT22;5277;48.722;8.736;2023-03-31T10:00:42;17.20;93.70
10459;DHT22;5277;48.722;8.736;2023-03-31T10:03:11;17.90;93.30
10459;DHT22;5277;48.722;8.736;2023-03-31T10:05:47;18.70;92.40
10459;DHT22;5277;48.722;8.736;2023-03-31T10:13:47;19.90;86.00
10459;DHT22;5277;48.722;8.736;2023-03-31T10:16:47;19.70;86.30
10459;DHT22;5277;48.722;8.736;2023-03-31T10:19:34;19.10;88.40
10459;DHT22;5277;48.722;8.736;2023-03-31T10:22:03;19.10;90.00
10459;DHT22;5277;48.722;8.736;2023-03-31T10:24:40;19.50;89.10
10459;DHT22;5277;48.722;8.736;2023-03-31T10:27:30;19.70;86.80
10459;DHT22;5277;48.722;8.736;2023-03-31T10:29:58;19.90;86.20
10459;DHT22;5277;48.722;8.736;2023-03-31T10:35:02;20.40;82.50
10459;DHT22;5277;48.722;8.736;2023-03-31T10:37:29;20.70;83.00
10459;DHT22;5277;48.722;8.736;2023-03-31T10:40:01;21.40;78.30
10459;DHT22;5277;48.722;8.736;2023-03-31T10:42:30;21.40;75.20
10459;DHT22;5277;48.722;8.736;2023-03-31T10:47:39;20.10;74.10
10459;DHT22;5277;48.722;8.736;2023-03-31T10:50:14;19.50;77.10
10459;DHT22;5277;48.722;8.736;2023-03-31T10:52:45;18.90;78.70
10459;DHT22;5277;48.722;8.736;2023-03-31T10:55:22;18.20;85.90
10459;DHT22;5277;48.722;8.736;2023-03-31T10:57:56;17.60;87.40
10459;DHT22;5277;48.722;8.736;2023-03-31T11:03:22;15.80;92.60
10459;DHT22;5277;48.722;8.736;2023-03-31T11:06:09;14.80;94.80
10459;DHT22;5277;48.722;8.736;2023-03-31T11:12:00;13.50;97.90
10459;DHT22;5277;48.722;8.736;2023-03-31T11:17:26;12.60;99.30
10459;DHT22;5277;48.722;8.736;2023-03-31T11:25:59;11.90;99.90
10459;DHT22;5277;48.722;8.736;2023-03-31T11:36:37;11.40;99.90
10459;DHT22;5277;48.722;8.736;2023-03-31T11:41:43;11.50;99.90
10459;DHT22;5277;48.722;8.736;2023-03-31T11:44:14;11.80;99.90
10459;DHT22;5277;48.722;8.736;2023-03-31T11:51:59;15.30;99.90
10459;DHT22;5277;48.722;8.736;2023-03-31T11:54:47;17.10;98.00
10459;DHT22;5277;48.722;8.736;2023-03-31T11:57:38;18.80;96.20
10459;DHT22;5277;48.722;8.736;2023-03-31T12:03:20;20.50;92.30
10459;DHT22;5277;48.722;8.736;2023-03-31T12:05:54;21.30;89.50
10459;DHT22;5277;48.722;8.736;2023-03-31T12:08:46;21.60;86.70
10459;DHT22;5277;48.722;8.736;2023-03-31T12:11:49;21.90;84.20
10459;DHT22;5277;48.722;8.736;2023-03-31T12:14:23;22.80;82.90
10459;DHT22;5277;48.722;8.736;2023-03-31T12:17:01;23.00;77.90
10459;DHT22;5277;48.722;8.736;2023-03-31T12:20:36;22.50;80.90
10459;DHT22;5277;48.722;8.736;2023-03-31T12:22:38;22.70;79.20
10459;DHT22;5277;48.722;8.736;2023-03-31T12:25:11;22.40;78.60
10459;DHT22;5277;48.722;8.736;2023-03-31T12:27:41;22.20;74.90
10459;DHT22;5277;48.722;8.736;2023-03-31T12:30:28;22.20;73.30
10459;DHT22;5277;48.722;8.736;2023-03-31T12:33:06;21.50;73.60
10459;DHT22;5277;48.722;8.736;2023-03-31T12:41:44;21.60;73.00
10459;DHT22;5277;48.722;8.736;2023-03-31T12:51:06;20.20;71.90
10459;DHT22;5277;48.722;8.736;2023-03-31T12:55:48;18.20;81.00
10459;DHT22;5277;48.722;8.736;2023-03-31T13:03:46;16.00;91.90
10459;DHT22;5277;48.722;8.736;2023-03-31T13:09:05;14.50;95.30
10459;DHT22;5277;48.722;8.736;2023-03-31T13:14:03;13.60;98.80
10459;DHT22;5277;48.722;8.736;2023-03-31T13:16:32;13.20;98.10
10459;DHT22;5277;48.722;8.736;2023-03-31T13:18:58;12.70;99.60
10459;DHT22;5277;48.722;8.736;2023-03-31T13:21:24;12.50;99.90
10459;DHT22;5277;48.722;8.736;2023-03-31T13:23:50;12.30;99.90
10459;DHT22;5277;48.722;8.736;2023-03-31T13:43:28;11.00;99.90
10459;DHT22;5277;48.722;8.736;2023-03-31T13:51:56;10.70;99.90
10459;DHT22;5277;48.722;8.736;2023-03-31T14:00:18;11.00;99.90
10459;DHT22;5277;48.722;8.736;2023-03-31T14:08:32;11.00;99.90
10459;DHT22;5277;48.722;8.736;2023-03-31T14:11:22;11.10;99.90
10459;DHT22;5277;48.722;8.736;2023-03-31T14:14:13;11.10;99.90
10459;DHT22;5277;48.722;8.736;2023-03-31T14:22:18;11.30;99.90
10459;DHT22;5277;48.722;8.736;2023-03-31T14:24:58;11.30;99.90
10459;DHT22;5277;48.722;8.736;2023-03-31T14:27:43;11.40;99.90
10459;DHT22;5277;48.722;8.736;2023-03-31T14:30:39;11.30;99.90
10459;DHT22;5277;48.722;8.736;2023-03-31T14:33:55;11.30;99.90
10459;DHT22;5277;48.722;8.736;2023-03-31T14:39:13;11.40;99.90
10459;DHT22;5277;48.722;8.736;2023-03-31T14:41:40;11.40;99.90
10459;DHT22;5277;48.722;8.736;2023-03-31T14:44:12;11.40;99.90
10459;DHT22;5277;48.722;8.736;2023-03-31T14:46:39;11.50;99.90
10459;DHT22;5277;48.722;8.736;2023-03-31T14:49:14;11.40;99.90
10459;DHT22;5277;48.722;8.736;2023-03-31T14:51:43;11.50;99.90
10459;DHT22;5277;48.722;8.736;2023-03-31T14:54:16;11.50;99.90
10459;DHT22;5277;48.722;8.736;2023-03-31T14:56:44;11.60;99.90
10459;DHT22;5277;48.722;8.736;2023-03-31T14:59:38;11.60;99.90
10459;DHT22;5277;48.722;8.736;2023-03-31T15:02:04;11.70;99.90
10459;DHT22;5277;48.722;8.736;2023-03-31T15:04:36;11.70;99.90
10459;DHT22;5277;48.722;8.736;2023-03-31T15:07:09;11.70;99.90
10459;DHT22;5277;48.722;8.736;2023-03-31T15:09:36;11.70;99.90
10459;DHT22;5277;48.722;8.736;2023-03-31T15:12:06;11.80;99.90
10459;DHT22;5277;48.722;8.736;2023-03-31T15:14:35;11.90;99.90
10459;DHT22;5277;48.722;8.736;2023-03-31T15:17:03;11.90;99.90
10459;DHT22;5277;48.722;8.736;2023-03-31T15:19:32;11.80;99.90
10459;DHT22;5277;48.722;8.736;2023-03-31T15:22:09;11.90;99.90
10459;DHT22;5277;48.722;8.736;2023-03-31T15:24:35;11.80;99.90
10459;DHT22;5277;48.722;8.736;2023-03-31T15:27:19;11.90;99.90
10459;DHT22;5277;48.722;8.736;2023-03-31T15:29:48;12.00;99.90
10459;DHT22;5277;48.722;8.736;2023-03-31T15:32:18;12.10;99.90
10459;DHT22;5277;48.722;8.736;2023-03-31T15:34:49;12.10;99.90
10459;DHT22;5277;48.722;8.736;2023-03-31T15:37:29;12.30;99.90
10459;DHT22;5277;48.722;8.736;2023-03-31T15:39:59;12.30;99.90
10459;DHT22;5277;48.722;8.736;2023-03-31T15:42:26;12.20;99.90
10459;DHT22;5277;48.722;8.736;2023-03-31T15:47:51;12.30;99.90
10459;DHT22;5277;48.722;8.736;2023-03-31T15:50:20;12.30;99.90
10459;DHT22;5277;48.722;8.736;2023-03-31T15:52:52;12.30;99.90
10459;DHT22;5277;48.722;8.736;2023-03-31T15:57:57;12.40;99.90
10459;DHT22;5277;48.722;8.736;2023-03-31T16:03:02;12.30;99.90
10459;DHT22;5277;48.722;8.736;2023-03-31T16:05:48;12.40;99.90
10459;DHT22;5277;48.722;8.736;2023-03-31T16:08:23;12.30;99.90
10459;DHT22;5277;48.722;8.736;2023-03-31T16:10:56;12.10;99.90
10459;DHT22;5277;48.722;8.736;2023-03-31T16:13:23;12.00;99.90
10459;DHT22;5277;48.722;8.736;2023-03-31T16:15:52;11.90;99.90
10459;DHT22;5277;48.722;8.736;2023-03-31T16:18:52;11.70;99.90
10459;DHT22;5277;48.722;8.736;2023-03-31T16:21:24;11.50;99.90
10459;DHT22;5277;48.722;8.736;2023-03-31T16:23:56;11.40;99.90
10459;DHT22;5277;48.722;8.736;2023-03-31T16:26:23;11.30;99.90
10459;DHT22;5277;48.722;8.736;2023-03-31T16:28:51;11.30;99.90
10459;DHT22;5277;48.722;8.736;2023-03-31T16:33:55;11.10;99.90
10459;DHT22;5277;48.722;8.736;2023-03-31T16:36:21;11.10;99.90
10459;DHT22;5277;48.722;8.736;2023-03-31T16:38:47;11.00;99.90
10459;DHT22;5277;48.722;8.736;2023-03-31T16:41:15;10.90;99.90
10459;DHT22;5277;48.722;8.736;2023-03-31T16:43:44;11.00;99.90
10459;DHT22;5277;48.722;8.736;2023-03-31T16:46:10;10.80;99.90
10459;DHT22;5277;48.722;8.736;2023-03-31T16:48:35;10.70;99.90
10459;DHT22;5277;48.722;8.736;2023-03-31T16:51:01;10.80;99.90
10459;DHT22;5277;48.722;8.736;2023-03-31T16:53:30;10.80;99.90
10459;DHT22;5277;48.722;8.736;2023-03-31T16:55:58;10.70;99.90
10459;DHT22;5277;48.722;8.736;2023-03-31T16:58:24;10.70;99.90
10459;DHT22;5277;48.722;8.736;2023-03-31T17:00:51;10.50;99.90
10459;DHT22;5277;48.722;8.736;2023-03-31T17:03:17;10.60;99.90
10459;DHT22;5277;48.722;8.736;2023-03-31T17:05:45;10.50;99.90
10459;DHT22;5277;48.722;8.736;2023-03-31T17:08:13;10.50;99.90
10459;DHT22;5277;48.722;8.736;2023-03-31T17:10:39;10.50;99.90
10459;DHT22;5277;48.722;8.736;2023-03-31T17:13:06;10.50;99.90
10459;DHT22;5277;48.722;8.736;2023-03-31T17:15:32;10.50;99.90
10459;DHT22;5277;48.722;8.736;2023-03-31T17:18:00;10.40;99.90
10459;DHT22;5277;48.722;8.736;2023-03-31T17:20:28;10.30;99.90
10459;DHT22;5277;48.722;8.736;2023-03-31T17:22:54;10.20;99.90
10459;DHT22;5277;48.722;8.736;2023-03-31T17:25:19;10.20;99.90
10459;DHT22;5277;48.722;8.736;2023-03-31T17:27:45;10.10;99.90
10459;DHT22;5277;48.722;8.736;2023-03-31T17:30:12;10.10;99.90
10459;DHT22;5277;48.722;8.736;2023-03-31T17:32:38;10.10;99.90
10459;DHT22;5277;48.722;8.736;2023-03-31T17:35:04;10.00;99.90
10459;DHT22;5277;48.722;8.736;2023-03-31T17:37:32;10.00;99.90
10459;DHT22;5277;48.722;8.736;2023-03-31T17:39:58;9.90;99.90
10459;DHT22;5277;48.722;8.736;2023-03-31T17:42:24;10.00;99.90
10459;DHT22;5277;48.722;8.736;2023-03-31T17:44:50;10.00;99.90
10459;DHT22;5277;48.722;8.736;2023-03-31T17:47:17;10.00;99.90
10459;DHT22;5277;48.722;8.736;2023-03-31T17:49:43;10.10;99.90
10459;DHT22;5277;48.722;8.736;2023-03-31T17:52:09;10.10;99.90
10459;DHT22;5277;48.722;8.736;2023-03-31T17:54:35;10.10;99.90
10459;DHT22;5277;48.722;8.736;2023-03-31T17:57:01;10.10;99.90
10459;DHT22;5277;48.722;8.736;2023-03-31T17:59:27;10.00;99.90
10459;DHT22;5277;48.722;8.736;2023-03-31T18:01:53;10.00;99.90
10459;DHT22;5277;48.722;8.736;2023-03-31T18:04:19;9.90;99.90
10459;DHT22;5277;48.722;8.736;2023-03-31T18:06:45;10.00;99.90
10459;DHT22;5277;48.722;8.736;2023-03-31T18:09:13;9.90;99.90
10459;DHT22;5277;48.722;8.736;2023-03-31T18:11:39;9.90;99.90
10459;DHT22;5277;48.722;8.736;2023-03-31T18:14:05;9.90;99.90
10459;DHT22;5277;48.722;8.736;2023-03-31T18:16:34;9.80;99.90
10459;DHT22;5277;48.722;8.736;2023-03-31T18:19:00;9.80;99.90
10459;DHT22;5277;48.722;8.736;2023-03-31T18:21:26;9.80;99.90
10459;DHT22;5277;48.722;8.736;2023-03-31T18:23:52;9.80;99.90
10459;DHT22;5277;48.722;8.736;2023-03-31T18:26:20;9.70;99.90
10459;DHT22;5277;48.722;8.736;2023-03-31T18:28:46;9.60;99.90
10459;DHT22;5277;48.722;8.736;2023-03-31T18:31:12;9.60;99.90
10459;DHT22;5277;48.722;8.736;2023-03-31T18:33:39;9.60;99.90
10459;DHT22;5277;48.722;8.736;2023-03-31T18:36:05;9.50;99.90
10459;DHT22;5277;48.722;8.736;2023-03-31T18:38:32;9.50;99.90
10459;DHT22;5277;48.722;8.736;2023-03-31T18:40:57;9.50;99.90
10459;DHT22;5277;48.722;8.736;2023-03-31T18:43:24;9.50;99.90
10459;DHT22;5277;48.722;8.736;2023-03-31T18:45:51;9.50;99.90
10459;DHT22;5277;48.722;8.736;2023-03-31T18:48:18;9.50;99.90
10459;DHT22;5277;48.722;8.736;2023-03-31T18:50:46;9.40;99.90
10459;DHT22;5277;48.722;8.736;2023-03-31T18:53:13;9.30;99.90
10459;DHT22;5277;48.722;8.736;2023-03-31T18:55:42;9.30;99.90
10459;DHT22;5277;48.722;8.736;2023-03-31T18:58:08;9.30;99.90
10459;DHT22;5277;48.722;8.736;2023-03-31T19:00:34;9.40;99.90
10459;DHT22;5277;48.722;8.736;2023-03-31T19:03:00;9.40;99.90
10459;DHT22;5277;48.722;8.736;2023-03-31T19:05:26;9.20;99.90
10459;DHT22;5277;48.722;8.736;2023-03-31T19:07:51;9.20;99.90
10459;DHT22;5277;48.722;8.736;2023-03-31T19:10:18;9.10;99.90